Time;durP1;ratioP1;P1;durP2;ratioP2;P2;SDS_P1;SDS_P2;PMS_P1;PMS_P2;Temp;Humidity;BMP_temperature;BMP_pressure;BME280_temperature;BME280_humidity;BME280_pressure;Samples;Min_cycle;Max_cycle;Signal;HPM_P1;HPM_P2
2023/07/22 00:00:40;;;;;;;7.10;4.70;;;;;;;13.38;90.66;100533.71;106954;1256;70013;-73
2023/07/22 00:03:07;;;;;;;6.70;4.80;;;;;;;13.33;91.10;100533.04;106876;1257;71569;-73
2023/07/22 00:05:34;;;;;;;7.00;5.00;;;;;;;13.28;91.13;100533.02;107114;1259;61987;-72
2023/07/22 00:08:01;;;;;;;8.40;5.50;;;;;;;13.24;91.21;100533.53;107122;1260;61253;-72
2023/07/22 00:10:28;;;;;;;7.40;5.10;;;;;;;13.20;91.09;100532.61;107062;1260;73065;-71
2023/07/22 00:12:55;;;;;;;8.40;5.50;;;;;;;13.16;91.60;100530.05;107185;1259;70036;-71
2023/07/22 00:15:23;;;;;;;7.90;4.80;;;;;;;13.13;91.45;100532.48;106881;1256;71515;-71
2023/07/22 00:17:51;;;;;;;9.80;6.30;;;;;;;13.09;92.00;100534.02;107015;1257;61755;-73
2023/07/22 00:20:19;;;;;;;7.70;5.70;;;;;;;13.05;91.99;100535.52;107094;1257;61152;-74
2023/07/22 00:22:46;;;;;;;8.70;5.80;;;;;;;13.02;92.47;100537.50;107050;1257;73257;-73
2023/07/22 00:25:13;;;;;;;8.70;5.60;;;;;;;13.00;92.51;100542.92;107096;1260;70140;-72
2023/07/22 00:27:41;;;;;;;8.90;5.90;;;;;;;12.97;92.36;100539.88;106887;1257;74332;-71
2023/07/22 00:30:08;;;;;;;9.50;5.90;;;;;;;12.94;92.64;100537.77;107129;1258;61339;-72
2023/07/22 00:32:39;;;;;;;9.30;6.00;;;;;;;12.92;92.97;100539.66;106867;1259;61186;-71
2023/07/22 00:35:06;;;;;;;8.50;5.70;;;;;;;12.89;92.98;100539.36;106848;1258;73338;-71
2023/07/22 00:37:33;;;;;;;8.40;6.00;;;;;;;12.86;93.21;100543.27;106688;1261;71035;-72
2023/07/22 00:40:03;;;;;;;9.20;6.80;;;;;;;12.83;93.47;100542.52;106936;1256;71471;-72
2023/07/22 00:42:30;;;;;;;9.60;6.20;;;;;;;12.83;93.30;100544.89;107294;1256;64681;-73
2023/07/22 00:44:57;;;;;;;10.50;6.00;;;;;;;12.83;93.46;100548.14;107153;1262;61809;-72
2023/07/22 00:47:24;;;;;;;8.60;6.00;;;;;;;12.83;93.25;100548.62;106885;1259;75020;-72
2023/07/22 00:49:51;;;;;;;9.60;6.40;;;;;;;12.84;93.46;100544.23;107263;1256;69643;-72
2023/07/22 00:52:18;;;;;;;9.10;6.10;;;;;;;12.84;93.88;100543.15;106986;1260;71991;-73
2023/07/22 00:54:44;;;;;;;11.10;5.90;;;;;;;12.84;93.85;100541.75;107135;1256;61877;-72
2023/07/22 00:57:11;;;;;;;10.90;6.60;;;;;;;12.83;93.81;100541.53;106993;1260;59534;-72
2023/07/22 00:59:41;;;;;;;11.50;6.40;;;;;;;12.82;94.09;100541.30;106757;1261;73500;-72
2023/07/22 01:02:08;;;;;;;10.80;5.90;;;;;;;12.81;94.02;100535.95;106993;1262;69930;-72
2023/07/22 01:04:36;;;;;;;9.00;6.40;;;;;;;12.79;93.93;100538.48;107159;1258;72392;-71
2023/07/22 01:07:07;;;;;;;11.60;6.30;;;;;;;12.76;93.80;100538.13;106922;1257;61151;-71
2023/07/22 01:09:35;;;;;;;8.50;6.20;;;;;;;12.74;93.84;100533.73;106543;1257;61394;-71
2023/07/22 01:12:02;;;;;;;12.00;6.30;;;;;;;12.72;93.80;100533.51;106756;1258;75808;-73
2023/07/22 01:14:29;;;;;;;9.40;6.30;;;;;;;12.70;93.74;100533.29;107146;1256;71780;-71
2023/07/22 01:16:56;;;;;;;8.60;6.20;;;;;;;12.68;93.85;100533.16;107362;1256;71962;-73
2023/07/22 01:19:23;;;;;;;9.70;6.30;;;;;;;12.65;94.05;100532.56;106918;1257;62434;-73
2023/07/22 01:21:51;;;;;;;9.90;6.10;;;;;;;12.63;94.04;100535.83;107196;1260;61238;-72
2023/07/22 01:24:18;;;;;;;10.80;6.40;;;;;;;12.61;94.05;100534.33;107105;1256;74152;-73
2023/07/22 01:26:46;;;;;;;9.70;5.70;;;;;;;12.59;93.98;100537.63;107433;1256;70613;-72
2023/07/22 01:29:13;;;;;;;9.10;6.10;;;;;;;12.58;94.29;100538.11;106996;1257;70642;-71
2023/07/22 01:31:41;;;;;;;10.20;6.30;;;;;;;12.57;94.28;100538.79;106682;1261;61175;-71
2023/07/22 01:34:07;;;;;;;9.00;5.90;;;;;;;12.55;94.14;100536.27;106907;1258;60829;-72
2023/07/22 01:36:34;;;;;;;12.40;6.60;;;;;;;12.53;94.31;100540.52;107203;1261;74093;-73
2023/07/22 01:39:01;;;;;;;10.30;6.00;;;;;;;12.51;94.33;100533.86;106682;1261;248822;-73
2023/07/22 01:41:27;;;;;;;10.50;6.30;;;;;;;12.48;94.60;100533.85;106835;1260;71063;-72
2023/07/22 01:43:54;;;;;;;9.80;6.60;;;;;;;12.44;94.64;100535.00;106959;1260;62060;-72
2023/07/22 01:46:21;;;;;;;12.90;6.40;;;;;;;12.42;94.78;100531.36;107206;1261;61082;-72
2023/07/22 01:48:48;;;;;;;10.30;6.60;;;;;;;12.39;94.84;100529.92;107163;1257;74947;-72
2023/07/22 01:51:15;;;;;;;11.10;6.40;;;;;;;12.38;94.93;100533.27;106950;1256;69804;-72
2023/07/22 01:53:42;;;;;;;11.50;6.40;;;;;;;12.37;94.95;100536.25;107243;1259;71137;-72
2023/07/22 01:56:09;;;;;;;10.20;6.30;;;;;;;12.35;95.25;100535.79;106833;1262;62162;-71
2023/07/22 01:58:36;;;;;;;10.50;6.70;;;;;;;12.33;95.32;100536.73;107339;1256;61340;-72
2023/07/22 02:01:03;;;;;;;10.80;6.50;;;;;;;12.31;95.21;100536.64;107026;1256;74793;-72
2023/07/22 02:03:29;;;;;;;11.20;7.10;;;;;;;12.29;95.23;100535.67;106821;1257;71286;-71
2023/07/22 02:06:03;;;;;;;9.10;6.20;;;;;;;12.27;95.45;100537.49;107061;1260;72687;-72
2023/07/22 02:08:30;;;;;;;11.70;6.90;;;;;;;12.24;95.90;100533.02;107103;1261;62109;-72
2023/07/22 02:11:03;;;;;;;13.40;6.70;;;;;;;12.22;95.71;100533.08;106942;1263;61179;-72
2023/07/22 02:13:31;;;;;;;10.20;6.90;;;;;;;12.21;95.54;100538.59;106826;1257;73487;-71
2023/07/22 02:15:58;;;;;;;9.20;6.70;;;;;;;12.18;95.94;100536.39;106643;1262;69799;-71
2023/07/22 02:18:25;;;;;;;10.40;6.80;;;;;;;12.17;96.23;100541.33;107301;1258;71470;-72
2023/07/22 02:20:53;;;;;;;10.20;6.60;;;;;;;12.17;96.60;100537.52;107020;1263;60793;-71
2023/07/22 02:23:20;;;;;;;10.50;6.70;;;;;;;12.17;96.39;100537.32;107196;1257;59956;-72
2023/07/22 02:25:54;;;;;;;11.20;6.20;;;;;;;12.16;96.76;100539.73;107064;1258;74648;-72
2023/07/22 02:28:22;;;;;;;10.80;6.20;;;;;;;12.16;96.83;100543.08;107125;1257;70029;-72
2023/07/22 02:30:53;;;;;;;9.10;6.10;;;;;;;12.16;97.00;100546.77;106862;1257;72351;-72
2023/07/22 02:33:21;;;;;;;10.50;6.50;;;;;;;12.17;96.63;100547.73;106810;1262;61701;-71
2023/07/22 02:35:48;;;;;;;11.10;6.70;;;;;;;12.16;96.60;100548.36;106416;1263;59508;-71
2023/07/22 02:38:15;;;;;;;10.80;6.40;;;;;;;12.15;96.63;100545.65;107136;1262;74736;-72
2023/07/22 02:40:42;;;;;;;12.90;5.90;;;;;;;12.15;96.82;100545.56;106991;1256;69678;-71
2023/07/22 02:43:09;;;;;;;10.10;5.70;;;;;;;12.16;96.74;100548.80;106970;1262;72743;-72
2023/07/22 02:45:36;;;;;;;10.50;6.10;;;;;;;12.16;96.58;100549.26;106746;1261;61818;-71
2023/07/22 02:48:04;;;;;;;11.20;5.80;;;;;;;12.16;96.42;100550.04;106796;1263;61214;-71
2023/07/22 02:50:31;;;;;;;8.70;5.80;;;;;;;12.16;96.50;100549.49;107369;1261;73357;-72
2023/07/22 02:52:58;;;;;;;9.90;5.60;;;;;;;12.17;96.26;100553.14;107080;1257;69698;-72
2023/07/22 02:55:25;;;;;;;9.10;5.40;;;;;;;12.18;96.14;100551.94;107321;1257;71638;-73
2023/07/22 02:57:51;;;;;;;9.30;5.20;;;;;;;12.19;96.06;100555.87;107115;1261;62280;-73
2023/07/22 03:00:25;;;;;;;11.00;5.40;;;;;;;12.21;96.32;100555.98;107057;1257;61257;-74
2023/07/22 03:02:53;;;;;;;11.10;5.20;;;;;;;12.24;96.32;100559.48;107088;1256;73169;-73
2023/07/22 03:05:21;;;;;;;10.00;5.10;;;;;;;12.28;96.13;100560.49;107094;1262;69919;-72
2023/07/22 03:07:47;;;;;;;9.60;5.30;;;;;;;12.30;95.92;100559.86;106912;1257;72768;-72
2023/07/22 03:10:14;;;;;;;10.10;5.50;;;;;;;12.31;95.74;100561.48;107029;1260;61264;-72
2023/07/22 03:12:41;;;;;;;9.10;5.10;;;;;;;12.31;95.67;100564.01;106971;1262;62105;-73
2023/07/22 03:15:08;;;;;;;9.30;4.80;;;;;;;12.31;95.41;100571.05;106762;1263;74755;-72
2023/07/22 03:17:36;;;;;;;10.10;5.70;;;;;;;12.31;95.38;100570.23;106927;1262;71379;-73
2023/07/22 03:20:08;;;;;;;10.00;5.80;;;;;;;12.31;95.41;100569.16;106979;1257;72382;-72
2023/07/22 03:22:35;;;;;;;9.70;5.50;;;;;;;12.29;95.25;100562.19;107245;1257;62039;-72
2023/07/22 03:25:04;;;;;;;9.60;5.70;;;;;;;12.29;95.39;100569.57;107059;1258;61164;-73
2023/07/22 03:27:32;;;;;;;11.10;6.10;;;;;;;12.28;95.59;100572.17;107279;1262;73783;-72
2023/07/22 03:29:59;;;;;;;12.60;6.00;;;;;;;12.26;95.59;100570.38;107142;1257;71181;-72
2023/07/22 03:32:25;;;;;;;10.40;6.00;;;;;;;12.24;95.45;100575.36;106998;1258;71996;-72
2023/07/22 03:34:52;;;;;;;11.70;6.40;;;;;;;12.24;95.42;100578.46;107242;1257;61725;-71
2023/07/22 03:37:20;;;;;;;9.90;6.00;;;;;;;12.22;95.62;100583.33;107028;1257;61702;-72
2023/07/22 03:39:47;;;;;;;10.60;6.20;;;;;;;12.20;95.68;100585.27;107115;1261;74486;-71
2023/07/22 03:42:13;;;;;;;11.60;6.40;;;;;;;12.20;95.78;100594.92;107319;1260;70505;-72
2023/07/22 03:44:40;;;;;;;10.80;6.40;;;;;;;12.18;95.72;100595.64;106871;1257;71842;-72
2023/07/22 03:47:07;;;;;;;12.60;6.50;;;;;;;12.18;96.10;100599.77;106920;1256;62034;-72
2023/07/22 03:49:34;;;;;;;12.00;7.10;;;;;;;12.17;96.08;100597.86;106785;1257;61745;-72
2023/07/22 03:52:01;;;;;;;11.40;6.50;;;;;;;12.16;96.26;100599.42;107091;1257;73939;-72
2023/07/22 03:54:28;;;;;;;13.80;7.20;;;;;;;12.17;96.31;100604.33;107318;1257;71256;-72
2023/07/22 03:56:54;;;;;;;12.20;6.70;;;;;;;12.18;96.69;100600.66;106864;1257;61212;-72
2023/07/22 03:59:21;;;;;;;15.60;7.40;;;;;;;12.19;96.74;100602.52;106888;1258;63035;-72
2023/07/22 04:01:47;;;;;;;12.60;6.60;;;;;;;12.20;96.50;100602.16;107057;1257;61299;-73
2023/07/22 04:04:15;;;;;;;11.50;6.90;;;;;;;12.20;96.77;100602.45;107050;1260;76253;-73
2023/07/22 04:06:41;;;;;;;13.50;6.80;;;;;;;12.22;96.74;100596.41;107361;1258;69995;-73
2023/07/22 04:09:08;;;;;;;10.80;6.80;;;;;;;12.26;96.74;100599.36;107001;1256;72765;-73
2023/07/22 04:11:35;;;;;;;11.30;6.70;;;;;;;12.30;96.82;100594.29;106781;1257;62449;-72
2023/07/22 04:14:02;;;;;;;11.60;6.70;;;;;;;12.33;96.64;100591.41;107696;1258;61338;-72
2023/07/22 04:16:29;;;;;;;12.30;6.70;;;;;;;12.36;96.78;100590.54;106903;1261;73505;-73
2023/07/22 04:18:56;;;;;;;12.80;6.50;;;;;;;12.39;96.62;100591.84;106635;1257;69734;-72
2023/07/22 04:21:24;;;;;;;11.80;6.30;;;;;;;12.44;96.62;100594.98;107886;1257;71482;-71
2023/07/22 04:23:50;;;;;;;13.00;7.20;;;;;;;12.47;96.43;100596.58;106051;1257;61391;-72
2023/07/22 04:26:17;;;;;;;11.80;6.40;;;;;;;12.54;96.03;100597.96;106384;1257;61231;-72
2023/07/22 04:28:44;;;;;;;10.70;6.20;;;;;;;12.61;95.89;100598.56;106185;1257;74645;-72
2023/07/22 04:31:11;;;;;;;10.60;6.50;;;;;;;12.68;95.67;100598.30;106164;1257;70050;-72
2023/07/22 04:33:38;;;;;;;12.40;6.70;;;;;;;12.76;95.23;100596.40;106099;1257;72422;-71
2023/07/22 04:36:05;;;;;;;11.50;6.80;;;;;;;12.82;94.95;100603.75;106192;1257;61798;-73
2023/07/22 04:38:31;;;;;;;12.30;6.70;;;;;;;12.88;94.59;100604.58;106437;1257;61663;-72
2023/07/22 04:41:01;;;;;;;14.10;6.60;;;;;;;12.94;94.34;100606.84;106205;1262;73640;-73
2023/07/22 04:43:28;;;;;;;12.20;6.70;;;;;;;13.00;93.96;100599.00;106053;1263;70114;-73
2023/07/22 04:45:55;;;;;;;13.50;6.40;;;;;;;13.07;93.63;100602.26;106129;1262;71796;-71
2023/07/22 04:48:23;;;;;;;12.60;6.20;;;;;;;13.13;92.78;100604.67;106335;1257;62462;-72
2023/07/22 04:50:50;;;;;;;11.20;6.10;;;;;;;13.21;92.07;100604.17;106221;1257;61157;-71
2023/07/22 04:53:17;;;;;;;11.50;6.40;;;;;;;13.26;91.32;100609.98;106157;1262;74650;-71
2023/07/22 04:55:44;;;;;;;8.20;5.40;;;;;;;13.32;90.81;100610.62;106154;1257;68969;-70
2023/07/22 04:58:11;;;;;;;10.50;5.90;;;;;;;13.37;90.09;100614.02;106227;1257;72183;-71
2023/07/22 05:00:38;;;;;;;9.50;5.60;;;;;;;13.44;89.95;100614.42;106401;1257;62113;-72
2023/07/22 05:03:05;;;;;;;10.40;5.30;;;;;;;13.51;89.56;100613.73;106138;1257;60247;-70
2023/07/22 05:05:32;;;;;;;10.40;5.90;;;;;;;13.55;88.66;100612.57;106126;1257;74679;-71
2023/07/22 05:07:59;;;;;;;9.50;5.70;;;;;;;13.59;88.47;100615.91;106120;1257;70246;-73
2023/07/22 05:10:28;;;;;;;8.80;5.20;;;;;;;13.64;88.13;100615.41;106418;1257;73119;-71
2023/07/22 05:12:57;;;;;;;11.40;5.60;;;;;;;13.70;87.87;100617.91;106486;1257;61260;-76
2023/07/22 05:15:24;;;;;;;10.20;5.40;;;;;;;13.77;87.69;100620.34;106052;1257;62078;-72
2023/07/22 05:17:51;;;;;;;10.00;5.40;;;;;;;13.81;87.38;100621.56;106153;1257;73447;-72
2023/07/22 05:20:18;;;;;;;11.20;5.10;;;;;;;13.86;87.13;100621.26;106453;1257;71153;-73
2023/07/22 05:22:44;;;;;;;7.90;5.30;;;;;;;13.93;86.90;100622.96;106190;1257;71826;-72
2023/07/22 05:25:11;;;;;;;10.60;5.60;;;;;;;13.99;86.61;100620.49;106256;1257;61353;-72
2023/07/22 05:27:40;;;;;;;10.50;5.60;;;;;;;14.09;86.38;100621.92;106178;1257;61382;-72
2023/07/22 05:30:07;;;;;;;8.40;5.20;;;;;;;14.19;85.88;100624.86;106301;1257;74729;-74
2023/07/22 05:32:45;;;;;;;10.30;5.10;;;;;;;14.27;85.46;100623.24;106132;1257;69927;-72
2023/07/22 05:35:12;;;;;;;9.30;5.10;;;;;;;14.33;85.01;100623.92;106219;1260;72669;-72
2023/07/22 05:37:39;;;;;;;10.20;5.30;;;;;;;14.39;84.84;100626.37;106109;1257;62140;-72
2023/07/22 05:40:07;;;;;;;10.50;5.30;;;;;;;14.44;84.56;100624.61;106358;1257;62052;-73
2023/07/22 05:42:34;;;;;;;8.10;4.40;;;;;;;14.49;84.05;100627.95;106319;1256;74679;-72
2023/07/22 05:45:02;;;;;;;9.70;4.70;;;;;;;14.52;83.90;100630.79;106068;1257;71250;-73
2023/07/22 05:47:29;;;;;;;8.90;5.10;;;;;;;14.55;83.66;100624.81;106192;1258;72773;-71
2023/07/22 05:49:56;;;;;;;8.80;4.70;;;;;;;14.57;83.36;100634.85;106185;1257;61379;-73
2023/07/22 05:52:23;;;;;;;9.60;4.80;;;;;;;14.61;83.32;100633.13;106530;1257;61208;-72
2023/07/22 05:54:50;;;;;;;9.50;4.80;;;;;;;14.64;83.08;100638.69;106269;1256;59651;-72
2023/07/22 05:57:16;;;;;;;8.50;4.90;;;;;;;14.70;83.05;100641.52;106229;1257;69606;-72
2023/07/22 05:59:43;;;;;;;8.00;4.80;;;;;;;14.73;82.79;100641.48;106059;1257;72834;-73
2023/07/22 06:02:13;;;;;;;9.10;4.90;;;;;;;14.76;82.62;100645.27;106258;1257;62853;-73
2023/07/22 06:04:40;;;;;;;10.00;5.20;;;;;;;14.77;82.34;100645.97;105979;1256;61498;-72
2023/07/22 06:07:06;;;;;;;8.20;4.70;;;;;;;14.81;82.17;100645.89;106192;1256;74684;-73
2023/07/22 06:09:33;;;;;;;8.60;5.00;;;;;;;14.86;81.75;100644.50;106100;1260;70086;-72
2023/07/22 06:11:59;;;;;;;8.00;4.80;;;;;;;14.90;81.27;100646.48;106216;1257;71469;-73
2023/07/22 06:14:27;;;;;;;8.40;4.60;;;;;;;14.96;81.48;100646.65;106368;1264;61132;-72
2023/07/22 06:16:53;;;;;;;9.30;4.80;;;;;;;15.03;81.51;100649.64;106199;1256;61127;-73
2023/07/22 06:19:20;;;;;;;8.60;5.20;;;;;;;15.13;81.34;100650.09;106143;1260;74087;-72
2023/07/22 06:21:47;;;;;;;10.40;5.10;;;;;;;15.22;80.83;100652.10;106186;1257;71218;-72
2023/07/22 06:24:13;;;;;;;9.50;4.90;;;;;;;15.33;80.75;100654.52;106366;1256;71453;-72
2023/07/22 06:26:40;;;;;;;8.90;4.90;;;;;;;15.45;80.49;100655.91;106428;1257;62141;-73
2023/07/22 06:29:07;;;;;;;8.30;4.60;;;;;;;15.54;79.42;100654.89;106229;1258;61276;-72
2023/07/22 06:31:34;;;;;;;8.00;4.80;;;;;;;15.59;78.93;100656.17;106232;1256;74761;-72
2023/07/22 06:34:01;;;;;;;7.00;4.60;;;;;;;15.62;78.62;100657.20;106072;1257;70818;-74
2023/07/22 06:36:28;;;;;;;8.70;5.30;;;;;;;15.65;79.38;100658.83;106304;1256;70777;-72
2023/07/22 06:38:56;;;;;;;8.80;4.90;;;;;;;15.71;79.61;100661.10;106238;1256;61943;-72
2023/07/22 06:41:24;;;;;;;9.40;5.20;;;;;;;15.75;79.27;100661.80;106134;1256;61366;-72
2023/07/22 06:43:51;;;;;;;8.20;5.20;;;;;;;15.79;78.99;100663.23;106087;1257;73372;-74
2023/07/22 06:46:18;;;;;;;11.00;5.30;;;;;;;15.88;78.99;100664.11;106413;1256;69962;-73
2023/07/22 06:48:45;;;;;;;9.30;4.90;;;;;;;15.97;78.33;100660.45;106244;1263;71926;-72
2023/07/22 06:51:12;;;;;;;6.70;5.00;;;;;;;16.09;78.23;100659.67;106247;1260;61392;-73
2023/07/22 06:53:39;;;;;;;9.50;5.50;;;;;;;16.25;77.98;100661.70;106090;1257;61225;-71
2023/07/22 06:56:05;;;;;;;11.60;5.50;;;;;;;16.39;77.06;100661.31;106302;1258;73455;-71
2023/07/22 06:58:32;;;;;;;10.10;5.30;;;;;;;16.51;76.89;100660.04;106416;1256;70312;-71
2023/07/22 07:00:59;;;;;;;11.10;5.70;;;;;;;16.65;75.93;100663.46;106194;1256;71744;-73
2023/07/22 07:03:26;;;;;;;10.30;5.20;;;;;;;16.76;75.24;100664.88;106164;1258;62089;-72
2023/07/22 07:05:56;;;;;;;10.10;5.50;;;;;;;16.84;74.57;100661.02;106124;1256;61400;-74
2023/07/22 07:08:23;;;;;;;10.90;5.70;;;;;;;16.89;74.20;100655.08;106430;1256;74854;-71
2023/07/22 07:10:51;;;;;;;8.50;5.20;;;;;;;16.99;74.10;100651.05;106211;1257;72651;-70
2023/07/22 07:13:18;;;;;;;8.40;4.80;;;;;;;17.04;73.32;100654.67;106175;1260;73118;-71
2023/07/22 07:15:50;;;;;;;8.70;5.10;;;;;;;17.03;72.69;100647.96;106057;1257;61366;-70
2023/07/22 07:18:17;;;;;;;7.60;5.10;;;;;;;17.10;72.30;100654.66;106369;1257;61367;-73
2023/07/22 07:20:44;;;;;;;8.30;5.50;;;;;;;17.19;70.98;100660.79;106182;1256;74619;-72
2023/07/22 07:23:16;;;;;;;10.20;4.90;;;;;;;17.22;70.64;100659.81;106170;1256;71011;-72
2023/07/22 07:25:43;;;;;;;9.60;5.00;;;;;;;17.23;70.04;100652.95;106256;1258;71498;-72
2023/07/22 07:28:11;;;;;;;8.70;5.20;;;;;;;17.24;70.26;100657.31;106497;1260;61190;-73
2023/07/22 07:30:38;;;;;;;8.30;4.90;;;;;;;17.27;70.27;100661.90;106391;1256;61245;-72
2023/07/22 07:33:05;;;;;;;7.20;4.90;;;;;;;17.34;70.12;100659.17;106163;1259;74779;-73
2023/07/22 07:35:31;;;;;;;8.30;5.10;;;;;;;17.40;70.06;100661.51;106152;1262;70345;-73
2023/07/22 07:37:59;;;;;;;9.20;5.30;;;;;;;17.51;70.59;100661.52;106235;1256;70545;-74
2023/07/22 07:40:26;;;;;;;7.70;5.20;;;;;;;17.61;70.24;100666.63;106530;1260;62343;-73
2023/07/22 07:42:53;;;;;;;8.20;5.30;;;;;;;17.60;69.62;100661.97;106111;1257;61141;-73
2023/07/22 07:45:20;;;;;;;7.90;5.40;;;;;;;17.59;69.53;100666.02;106119;1257;73757;-73
2023/07/22 07:47:47;;;;;;;10.20;5.50;;;;;;;17.65;69.65;100668.89;106167;1262;69245;-72
2023/07/22 07:50:13;;;;;;;8.20;5.30;;;;;;;17.71;69.19;100671.10;106253;1257;70172;-72
2023/07/22 07:52:40;;;;;;;9.20;5.40;;;;;;;17.75;68.62;100669.85;106322;1256;62060;-72
2023/07/22 07:55:07;;;;;;;9.00;5.70;;;;;;;17.86;68.81;100668.08;106085;1256;60063;-72
2023/07/22 07:57:34;;;;;;;10.70;5.20;;;;;;;17.98;68.03;100672.81;106128;1258;73206;-72
2023/07/22 08:00:01;;;;;;;7.80;5.40;;;;;;;18.05;67.59;100672.92;106187;1256;71125;-73
2023/07/22 08:02:28;;;;;;;10.10;5.60;;;;;;;18.09;66.95;100676.64;106551;1256;71920;-72
2023/07/22 08:04:55;;;;;;;8.30;4.90;;;;;;;18.18;67.19;100672.15;106257;1256;61838;-72
2023/07/22 08:07:22;;;;;;;10.20;5.40;;;;;;;18.34;67.02;100673.77;106129;1256;61180;-72
2023/07/22 08:09:49;;;;;;;10.70;5.40;;;;;;;18.45;65.90;100675.70;106089;1256;73263;-73
2023/07/22 08:12:16;;;;;;;8.50;5.60;;;;;;;18.51;65.49;100672.94;106426;1256;70260;-73
2023/07/22 08:14:43;;;;;;;8.80;5.60;;;;;;;18.54;65.51;100670.56;106270;1257;71440;-71
2023/07/22 08:17:10;;;;;;;8.50;5.80;;;;;;;18.54;65.54;100675.02;106193;1256;61129;-72
2023/07/22 08:19:37;;;;;;;8.10;5.40;;;;;;;18.50;65.22;100675.98;106220;1257;61185;-72
2023/07/22 08:22:04;;;;;;;9.30;5.30;;;;;;;18.43;64.77;100678.85;106298;1257;73455;-72
2023/07/22 08:24:32;;;;;;;8.60;5.30;;;;;;;18.37;65.12;100678.04;106613;1256;70629;-74
2023/07/22 08:26:59;;;;;;;9.30;5.50;;;;;;;18.32;65.45;100676.27;106267;1263;72686;-73
2023/07/22 08:29:26;;;;;;;7.90;5.30;;;;;;;18.31;65.49;100675.04;106238;1256;61388;-72
2023/07/22 08:31:53;;;;;;;8.00;5.20;;;;;;;18.31;65.77;100679.17;106231;1256;61365;-72
2023/07/22 08:34:20;;;;;;;7.70;5.40;;;;;;;18.26;65.70;100675.98;106419;1256;74716;-72
2023/07/22 08:36:47;;;;;;;7.90;5.00;;;;;;;18.28;65.75;100674.38;106309;1257;70008;-72
2023/07/22 08:39:13;;;;;;;7.00;4.70;;;;;;;18.36;65.79;100676.35;106242;1256;71892;-71
2023/07/22 08:41:48;;;;;;;6.80;4.80;;;;;;;18.46;65.84;100682.16;106169;1256;61713;-71
2023/07/22 08:44:19;;;;;;;8.60;5.00;;;;;;;18.59;64.90;100683.30;106417;1256;61750;-72
2023/07/22 08:46:55;;;;;;;9.90;6.60;;;;;;;18.70;64.22;100688.12;106032;1256;73480;-70
2023/07/22 08:49:22;;;;;;;8.70;5.00;;;;;;;18.91;64.34;100684.80;106233;1256;70467;-71
2023/07/22 08:51:49;;;;;;;7.30;5.20;;;;;;;19.26;63.34;100682.88;106257;1260;72766;-72
2023/07/22 08:54:16;;;;;;;7.50;5.20;;;;;;;19.48;62.30;100680.31;106453;1257;62103;-72
2023/07/22 08:56:43;;;;;;;8.20;5.30;;;;;;;19.61;61.73;100677.64;106198;1256;61262;-72
2023/07/22 08:59:11;;;;;;;7.40;5.40;;;;;;;19.74;60.54;100680.05;106207;1256;72573;-72
2023/07/22 09:01:39;;;;;;;7.90;5.50;;;;;;;19.94;60.78;100674.56;106039;1263;69921;-73
2023/07/22 09:04:07;;;;;;;8.10;5.90;;;;;;;20.07;59.72;100685.10;106500;1256;71461;-71
2023/07/22 09:06:34;;;;;;;8.30;6.00;;;;;;;20.14;59.59;100682.94;106270;1256;61414;-70
2023/07/22 09:09:06;;;;;;;7.00;5.90;;;;;;;20.11;58.84;100685.95;106276;1256;62212;-72
2023/07/22 09:11:34;;;;;;;7.30;5.60;;;;;;;20.19;59.28;100679.91;106096;1256;73574;-71
2023/07/22 09:14:04;;;;;;;7.10;5.20;;;;;;;20.23;59.31;100678.81;106282;1256;71963;-74
2023/07/22 09:16:31;;;;;;;7.40;5.40;;;;;;;20.20;59.06;100675.49;106192;1256;73115;-72
2023/07/22 09:18:59;;;;;;;7.60;5.40;;;;;;;20.10;58.67;100675.02;106185;1256;61252;-72
2023/07/22 09:21:27;;;;;;;7.90;5.80;;;;;;;19.95;59.18;100665.21;106233;1256;61196;-71
2023/07/22 09:23:54;;;;;;;7.50;5.60;;;;;;;19.87;60.44;100665.09;106486;1257;74708;-71
2023/07/22 09:26:21;;;;;;;9.90;6.00;;;;;;;19.87;60.22;100668.27;106291;1262;70650;-72
2023/07/22 09:28:49;;;;;;;9.60;5.90;;;;;;;19.86;59.66;100672.77;106367;1256;71489;-71
2023/07/22 09:31:16;;;;;;;7.70;5.70;;;;;;;19.83;58.94;100671.52;107013;1256;61129;-70
2023/07/22 09:33:43;;;;;;;7.50;6.20;;;;;;;19.86;58.65;100668.13;108866;1256;59018;-74
2023/07/22 09:36:11;;;;;;;9.70;6.90;;;;;;;19.89;59.03;100664.34;108875;1256;74121;-72
2023/07/22 09:38:38;;;;;;;9.80;7.10;;;;;;;20.03;59.08;100663.86;108904;1257;70671;-72
2023/07/22 09:41:05;;;;;;;9.00;6.90;;;;;;;20.17;58.77;100668.92;108878;1256;72353;-72
2023/07/22 09:43:36;;;;;;;7.50;6.30;;;;;;;20.30;58.23;100662.71;108803;1256;59510;-72
2023/07/22 09:46:07;;;;;;;9.50;6.70;;;;;;;20.46;57.97;100661.08;108929;1256;59870;-72
2023/07/22 09:48:53;;;;;;;7.60;6.20;;;;;;;20.76;55.81;100661.14;106476;1256;74797;-72
2023/07/22 09:51:21;;;;;;;9.80;6.20;;;;;;;20.99;55.76;100651.08;106137;1257;69941;-72
2023/07/22 09:53:59;;;;;;;7.10;5.70;;;;;;;21.17;54.45;100649.68;106199;1257;72074;-71
2023/07/22 09:56:26;;;;;;;8.00;5.70;;;;;;;21.24;53.39;100650.54;106063;1256;61276;-72
2023/07/22 09:58:54;;;;;;;7.60;6.00;;;;;;;21.30;53.36;100646.64;106115;1256;61296;-72
2023/07/22 10:01:24;;;;;;;7.70;5.70;;;;;;;21.42;53.38;100645.86;106255;1259;74659;-74
2023/07/22 10:03:56;;;;;;;7.40;5.60;;;;;;;21.45;52.99;100645.59;106374;1256;69850;-71
2023/07/22 10:06:28;;;;;;;6.60;5.10;;;;;;;21.45;52.37;100643.91;106277;1256;71730;-73
2023/07/22 10:09:15;;;;;;;7.30;5.10;;;;;;;21.47;51.91;100649.60;106017;1256;61740;-71
2023/07/22 10:11:41;;;;;;;8.50;4.60;;;;;;;21.60;51.09;100651.73;106303;1256;61163;-72
2023/07/22 10:14:09;;;;;;;7.50;5.20;;;;;;;21.68;51.10;100644.39;106981;1259;73628;-73
2023/07/22 10:16:37;;;;;;;6.80;4.70;;;;;;;21.76;51.15;100642.75;106059;1260;70222;-73
2023/07/22 10:19:05;;;;;;;6.10;4.80;;;;;;;21.82;51.44;100635.44;106335;1258;71473;-73
2023/07/22 10:21:32;;;;;;;5.30;4.40;;;;;;;21.74;50.64;100640.84;106415;1256;61109;-72
2023/07/22 10:24:01;;;;;;;6.20;4.30;;;;;;;21.66;50.72;100646.47;106115;1256;61296;-72
2023/07/22 10:26:28;;;;;;;8.40;4.40;;;;;;;21.59;50.73;100640.64;106068;1258;74497;-73
2023/07/22 10:29:13;;;;;;;6.50;4.40;;;;;;;21.58;51.41;100640.63;106272;1256;71321;-73
2023/07/22 10:31:40;;;;;;;7.20;5.30;;;;;;;21.54;52.60;100640.36;106109;1259;72534;-72
2023/07/22 10:34:06;;;;;;;6.10;5.10;;;;;;;21.53;53.03;100647.16;105984;1259;61190;-72
2023/07/22 10:36:35;;;;;;;8.00;5.40;;;;;;;21.55;53.30;100644.98;106103;1256;61254;-74
2023/07/22 10:39:02;;;;;;;8.00;5.10;;;;;;;21.68;53.59;100639.02;106239;1256;74850;-73
2023/07/22 10:41:32;;;;;;;6.60;4.80;;;;;;;21.88;53.55;100637.55;106056;1262;71759;-72
2023/07/22 10:44:00;;;;;;;7.10;4.40;;;;;;;22.15;52.16;100636.36;105952;1257;71478;-73
2023/07/22 10:46:35;;;;;;;4.70;3.30;;;;;;;22.42;51.31;100638.40;106078;1256;61156;-74
2023/07/22 10:49:14;;;;;;;3.70;2.80;;;;;;;22.53;47.51;100634.73;106215;1256;61357;-72
2023/07/22 10:51:41;;;;;;;4.40;3.20;;;;;;;22.42;48.34;100628.99;105934;1263;73904;-72
2023/07/22 10:54:30;;;;;;;5.30;3.70;;;;;;;22.34;49.54;100630.11;105953;1263;69682;-71
2023/07/22 10:56:57;;;;;;;5.70;3.90;;;;;;;22.12;49.31;100632.71;106199;1256;72691;-73
2023/07/22 10:59:27;;;;;;;4.90;3.70;;;;;;;21.87;49.76;100632.25;106059;1256;61704;-73
2023/07/22 11:01:54;;;;;;;5.00;3.60;;;;;;;21.57;50.07;100634.14;105937;1257;61217;-74
2023/07/22 11:04:31;;;;;;;5.50;3.60;;;;;;;21.32;50.95;100633.71;106122;1256;73527;-72
2023/07/22 11:07:30;;;;;;;5.00;3.10;;;;;;;21.15;51.32;100631.52;106120;1257;69912;-72
2023/07/22 11:09:57;;;;;;;4.60;3.20;;;;;;;21.08;51.86;100631.52;106139;1256;71042;-74
2023/07/22 11:12:25;;;;;;;4.40;2.90;;;;;;;21.16;51.73;100630.77;106068;1256;61293;-71
2023/07/22 11:15:01;;;;;;;4.90;3.20;;;;;;;21.36;51.83;100624.59;106005;1262;61340;-73
2023/07/22 11:17:30;;;;;;;5.10;3.40;;;;;;;21.66;51.37;100626.54;106268;1256;74719;-73